createdAt,value
2019-03-28T00:01:19.634Z,4.50
2019-03-28T00:03:50.216Z,4.87
2019-03-28T00:06:20.796Z,4.13
2019-03-28T00:08:51.449Z,5.30
2019-03-28T00:11:23.128Z,5.17
2019-03-28T00:13:53.717Z,5.27
2019-03-28T00:16:24.645Z,5.50
2019-03-28T00:18:58.731Z,5.50
2019-03-28T00:21:29.292Z,5.17
2019-03-28T00:24:15.139Z,5.00
2019-03-28T00:26:46.068Z,4.93
2019-03-28T00:29:16.981Z,4.87
2019-03-28T00:31:48.088Z,4.27
2019-03-28T00:34:19.231Z,4.80
2019-03-28T00:36:49.656Z,4.00
2019-03-28T00:39:20.338Z,4.83
2019-03-28T00:41:50.866Z,4.73
2019-03-28T00:44:21.526Z,4.57
2019-03-28T00:46:52.453Z,4.50
2019-03-28T00:49:24.432Z,5.00
2019-03-28T00:51:55.008Z,5.10
2019-03-28T00:54:27.071Z,4.20
2019-03-28T00:56:58.216Z,4.23
2019-03-28T00:59:30.051Z,4.13
2019-03-28T01:02:00.739Z,5.67
2019-03-28T01:04:31.473Z,4.40
2019-03-28T01:07:02.388Z,4.73
2019-03-28T01:09:33.183Z,4.27
2019-03-28T01:12:04.209Z,4.53
2019-03-28T01:14:55.628Z,5.33
2019-03-28T01:17:27.098Z,4.60
2019-03-28T01:19:57.773Z,4.23
2019-03-28T01:22:28.675Z,4.60
2019-03-28T01:24:59.316Z,5.40
2019-03-28T01:27:30.026Z,5.17
2019-03-28T01:30:00.808Z,4.37
2019-03-28T01:32:31.721Z,4.37
2019-03-28T01:35:02.516Z,4.33
2019-03-28T01:37:33.207Z,4.20
2019-03-28T01:40:03.731Z,5.13
2019-03-28T01:42:36.431Z,6.10
2019-03-28T01:45:09.691Z,6.13
2019-03-28T01:47:40.632Z,6.27
2019-03-28T01:50:11.483Z,5.43
2019-03-28T01:52:42.213Z,6.30
2019-03-28T01:55:12.926Z,4.90
2019-03-28T01:57:43.549Z,4.80
2019-03-28T02:00:14.610Z,5.87
2019-03-28T02:02:45.341Z,5.63
2019-03-28T02:05:16.315Z,5.90
2019-03-28T02:07:50.285Z,6.00
2019-03-28T02:10:25.022Z,4.60
2019-03-28T02:12:57.057Z,5.47
2019-03-28T02:15:29.031Z,6.00
2019-03-28T02:17:59.712Z,5.20
2019-03-28T02:20:30.436Z,4.33
2019-03-28T02:23:01.109Z,4.23
2019-03-28T02:25:31.931Z,4.30
2019-03-28T02:28:02.875Z,4.77
2019-03-28T02:30:34.064Z,5.17
2019-03-28T02:33:04.780Z,5.10
2019-03-28T02:35:35.503Z,5.10
2019-03-28T02:38:05.955Z,5.70
2019-03-28T02:40:36.591Z,4.13
2019-03-28T02:43:07.249Z,5.50
2019-03-28T02:45:38.161Z,5.30
2019-03-28T02:48:08.760Z,4.80
2019-03-28T02:50:39.502Z,5.00
2019-03-28T02:53:10.104Z,5.60
2019-03-28T02:55:41.025Z,5.13
2019-03-28T02:58:11.709Z,5.20
2019-03-28T03:00:42.237Z,5.90
2019-03-28T03:03:12.896Z,5.60
2019-03-28T03:05:43.405Z,5.73
2019-03-28T03:08:14.230Z,6.07
2019-03-28T03:10:44.831Z,5.60
2019-03-28T03:13:15.472Z,5.07
2019-03-28T03:15:46.043Z,5.23
2019-03-28T03:18:16.623Z,5.00
2019-03-28T03:20:47.201Z,5.10
2019-03-28T03:23:20.088Z,4.93
2019-03-28T03:25:51.002Z,4.20
2019-03-28T03:28:21.875Z,5.20
2019-03-28T03:30:52.480Z,4.53
2019-03-28T03:33:23.094Z,3.90
2019-03-28T03:35:53.855Z,4.77
2019-03-28T03:38:24.553Z,3.97
2019-03-28T03:40:55.100Z,4.80
2019-03-28T03:43:26.573Z,4.93
2019-03-28T03:45:57.683Z,4.33
2019-03-28T03:48:28.357Z,4.47
2019-03-28T03:50:59.239Z,5.33
2019-03-28T03:53:29.824Z,5.07
2019-03-28T03:56:00.537Z,4.40
2019-03-28T03:58:30.979Z,4.50
2019-03-28T04:01:01.550Z,4.60
2019-03-28T04:03:32.152Z,4.83
2019-03-28T04:06:02.781Z,4.50
2019-03-28T04:08:33.359Z,4.77
2019-03-28T04:11:04.155Z,4.80
2019-03-28T04:13:34.651Z,5.93
2019-03-28T04:16:05.160Z,6.20
2019-03-28T04:18:35.915Z,6.40
2019-03-28T04:21:06.497Z,5.50
2019-03-28T04:23:37.491Z,5.30
2019-03-28T04:26:08.117Z,5.63
2019-03-28T04:28:38.804Z,5.07
2019-03-28T04:31:09.696Z,5.83
2019-03-28T04:33:40.327Z,5.43
2019-03-28T04:36:10.900Z,4.50
2019-03-28T04:38:42.871Z,5.10
2019-03-28T04:41:13.912Z,5.03
2019-03-28T04:43:45.709Z,4.87
2019-03-28T04:46:16.489Z,4.90
2019-03-28T04:48:47.071Z,3.90
2019-03-28T04:51:17.903Z,3.70
2019-03-28T04:53:48.435Z,4.50
2019-03-28T04:56:19.049Z,4.23
2019-03-28T04:58:49.991Z,4.53
2019-03-28T05:01:20.604Z,4.70
2019-03-28T05:03:51.012Z,7.00
2019-03-28T05:06:21.809Z,5.93
2019-03-28T05:08:52.838Z,5.80
2019-03-28T05:11:24.578Z,6.00
2019-03-28T05:13:55.317Z,5.00
2019-03-28T05:16:25.750Z,4.77
2019-03-28T05:18:57.488Z,5.70
2019-03-28T05:21:28.405Z,4.50
2019-03-28T05:23:59.474Z,4.83
2019-03-28T05:26:30.296Z,6.00
2019-03-28T05:29:01.147Z,5.67
2019-03-28T05:31:31.805Z,4.07
2019-03-28T05:34:02.279Z,4.77
2019-03-28T05:36:32.904Z,4.90
2019-03-28T05:39:04.270Z,5.40
2019-03-28T05:41:34.750Z,5.50
2019-03-28T05:44:05.262Z,5.47
2019-03-28T05:46:36.855Z,5.23
2019-03-28T05:49:08.236Z,4.90
2019-03-28T05:51:40.675Z,5.30
2019-03-28T05:54:11.482Z,4.27
2019-03-28T05:56:43.292Z,5.20
2019-03-28T05:59:14.009Z,4.67
2019-03-28T06:01:44.744Z,5.73
2019-03-28T06:04:15.450Z,4.20
2019-03-28T06:06:46.142Z,5.23
2019-03-28T06:09:17.783Z,4.50
2019-03-28T06:11:48.337Z,5.13
2019-03-28T06:14:19.961Z,5.20
2019-03-28T06:16:50.697Z,6.00
2019-03-28T06:19:21.350Z,6.07
2019-03-28T06:21:56.891Z,5.40
2019-03-28T06:24:28.004Z,5.40
2019-03-28T06:26:58.642Z,6.17
2019-03-28T06:29:30.328Z,5.53
2019-03-28T06:32:01.166Z,4.83
2019-03-28T06:34:31.981Z,5.73
2019-03-28T06:37:03.071Z,5.50
2019-03-28T06:39:36.382Z,5.40
2019-03-28T06:42:06.090Z,5.57
2019-03-28T06:44:36.813Z,6.10
2019-03-28T06:47:07.996Z,6.30
2019-03-28T06:49:38.761Z,5.70
2019-03-28T06:52:09.362Z,5.50
2019-03-28T06:54:40.359Z,5.50
2019-03-28T06:57:12.436Z,6.07
2019-03-28T06:59:43.182Z,6.40
2019-03-28T07:02:14.904Z,4.77
2019-03-28T07:04:45.633Z,5.40
2019-03-28T07:07:18.432Z,5.77
2019-03-28T07:09:49.947Z,5.83
2019-03-28T07:12:20.751Z,6.53
2019-03-28T07:14:51.356Z,6.10
2019-03-28T07:17:21.939Z,6.17
2019-03-28T07:19:52.729Z,6.77
2019-03-28T07:22:23.363Z,6.00
2019-03-28T07:24:54.283Z,5.83
2019-03-28T07:27:24.923Z,6.57
2019-03-28T07:29:55.849Z,6.73
2019-03-28T07:32:26.423Z,7.00
2019-03-28T07:34:57.315Z,7.10
2019-03-28T07:37:28.308Z,5.63
2019-03-28T07:39:59.093Z,6.83
2019-03-28T07:42:30.059Z,7.70
2019-03-28T07:45:00.833Z,8.73
2019-03-28T07:47:31.536Z,7.93
2019-03-28T07:50:02.333Z,7.27
2019-03-28T07:52:33.063Z,7.07
2019-03-28T07:55:03.824Z,7.57
2019-03-28T07:57:34.356Z,8.07
2019-03-28T08:00:05.955Z,8.23
2019-03-28T08:02:36.930Z,6.47
2019-03-28T08:05:08.915Z,7.07
2019-03-28T08:07:45.239Z,7.13
2019-03-28T08:10:12.109Z,7.83
2019-03-28T08:12:42.907Z,8.67
2019-03-28T08:15:13.801Z,8.50
2019-03-28T08:17:44.322Z,7.57
2019-03-28T08:20:15.047Z,8.90
2019-03-28T08:22:46.831Z,8.63
2019-03-28T08:25:17.911Z,8.53
2019-03-28T08:27:48.673Z,8.17
2019-03-28T08:30:23.511Z,7.37
2019-03-28T08:32:54.076Z,9.20
2019-03-28T08:35:24.732Z,9.13
2019-03-28T08:37:55.268Z,9.00
2019-03-28T08:40:39.906Z,9.23
2019-03-28T08:43:10.805Z,8.70
2019-03-28T08:45:41.313Z,8.40
2019-03-28T08:48:12.280Z,8.53
2019-03-28T08:50:43.015Z,7.87
2019-03-28T08:53:13.679Z,8.33
2019-03-28T08:55:44.479Z,8.40
2019-03-28T08:58:16.287Z,8.73
2019-03-28T09:00:52.236Z,8.20
2019-03-28T09:03:19.334Z,7.77
2019-03-28T09:05:51.349Z,8.03
2019-03-28T09:08:22.028Z,7.97
2019-03-28T09:10:52.744Z,9.20
2019-03-28T09:13:23.286Z,9.63
2019-03-28T09:15:54.090Z,7.27
2019-03-28T09:18:32.189Z,8.37
2019-03-28T09:21:02.950Z,7.53
2019-03-28T09:23:33.759Z,6.10
2019-03-28T09:26:04.888Z,7.70
2019-03-28T09:28:35.484Z,8.60
2019-03-28T09:31:19.237Z,8.90
2019-03-28T09:33:40.931Z,9.30
2019-03-28T09:36:12.024Z,8.37
2019-03-28T09:38:42.675Z,8.70
2019-03-28T09:41:13.423Z,10.00
2019-03-28T09:43:54.614Z,6.87
2019-03-28T09:46:16.622Z,7.77
2019-03-28T09:48:48.354Z,9.20
2019-03-28T09:51:18.822Z,9.20
2019-03-28T09:53:49.496Z,7.50
2019-03-28T09:56:21.436Z,8.57
2019-03-28T09:58:52.114Z,7.77
2019-03-28T10:01:24.108Z,8.43
2019-03-28T10:03:54.777Z,7.27
2019-03-28T10:06:25.619Z,7.10
2019-03-28T10:08:56.453Z,7.37
2019-03-28T10:11:27.281Z,7.43
2019-03-28T10:13:58.136Z,7.13
2019-03-28T10:16:28.950Z,8.30
2019-03-28T10:18:59.858Z,6.23
2019-03-28T10:21:30.649Z,5.07
2019-03-28T10:24:02.299Z,4.80
2019-03-28T10:26:33.026Z,5.20
2019-03-28T10:29:03.630Z,6.00
2019-03-28T10:31:34.198Z,6.60
2019-03-28T10:34:04.866Z,6.07
2019-03-28T10:36:35.507Z,6.50
2019-03-28T10:39:08.677Z,6.23
2019-03-28T10:41:39.999Z,6.27
2019-03-28T10:44:11.067Z,5.97
2019-03-28T10:46:42.626Z,7.13
2019-03-28T10:49:13.306Z,7.00
2019-03-28T10:51:43.893Z,6.57
2019-03-28T10:54:20.611Z,7.40
2019-03-28T10:56:52.004Z,7.50
2019-03-28T10:59:24.670Z,6.70
2019-03-28T11:01:53.624Z,5.83
2019-03-28T11:04:24.519Z,7.00
2019-03-28T11:06:55.264Z,5.53
2019-03-28T11:09:26.208Z,6.93
2019-03-28T11:11:56.856Z,6.90
2019-03-28T11:14:27.618Z,7.07
2019-03-28T11:16:58.244Z,7.20
2019-03-28T11:19:28.917Z,5.73
2019-03-28T11:22:03.489Z,8.00
2019-03-28T11:24:34.530Z,8.03
2019-03-28T11:27:05.257Z,5.30
2019-03-28T11:29:36.234Z,7.27
2019-03-28T11:32:06.903Z,8.10
2019-03-28T11:34:37.921Z,7.37
2019-03-28T11:37:19.957Z,7.87
2019-03-28T11:39:42.276Z,8.10
2019-03-28T11:42:13.026Z,6.90
2019-03-28T11:44:43.913Z,6.10
2019-03-28T11:47:14.888Z,6.77
2019-03-28T11:49:45.927Z,38.27
2019-03-28T11:52:18.032Z,7.67
2019-03-28T11:54:48.808Z,8.90
2019-03-28T11:57:19.562Z,5.77
2019-03-28T11:59:50.186Z,4.83
2019-03-28T12:02:20.929Z,4.93
2019-03-28T12:04:51.520Z,5.00
2019-03-28T12:07:23.372Z,4.80
2019-03-28T12:09:54.100Z,4.90
2019-03-28T12:12:25.093Z,4.73
2019-03-28T12:14:55.680Z,4.80
2019-03-28T12:17:26.429Z,7.30
2019-03-28T12:19:57.189Z,4.83
2019-03-28T12:22:29.007Z,5.83
2019-03-28T12:24:59.572Z,5.27
2019-03-28T12:27:30.592Z,4.20
2019-03-28T12:30:01.708Z,4.40
2019-03-28T12:32:34.728Z,4.60
2019-03-28T12:35:06.057Z,5.00
2019-03-28T12:37:37.682Z,4.27
2019-03-28T12:40:09.412Z,4.40
2019-03-28T12:42:40.625Z,4.70
2019-03-28T12:45:11.860Z,4.40
2019-03-28T12:47:43.330Z,5.77
2019-03-28T12:50:14.208Z,5.50
2019-03-28T12:52:45.612Z,7.80
2019-03-28T12:55:17.451Z,6.90
2019-03-28T12:57:49.261Z,8.13
2019-03-28T13:00:26.414Z,5.90
2019-03-28T13:02:59.464Z,5.00
2019-03-28T13:05:30.274Z,4.90
2019-03-28T13:08:01.171Z,4.63
2019-03-28T13:10:31.862Z,4.10
2019-03-28T13:13:03.814Z,3.97
2019-03-28T13:15:35.067Z,4.40
2019-03-28T13:18:05.863Z,5.00
2019-03-28T13:20:36.544Z,5.23
2019-03-28T13:23:07.497Z,4.70
2019-03-28T13:25:38.176Z,4.23
2019-03-28T13:28:09.265Z,5.40
2019-03-28T13:30:39.932Z,5.17
2019-03-28T13:33:11.200Z,4.80
2019-03-28T13:35:42.985Z,4.60
2019-03-28T13:38:14.492Z,5.03
2019-03-28T13:40:45.145Z,4.00
2019-03-28T13:43:16.003Z,5.30
2019-03-28T13:45:46.894Z,6.10
2019-03-28T13:48:17.573Z,5.37
2019-03-28T13:50:49.326Z,4.70
2019-03-28T13:53:19.990Z,4.53
2019-03-28T13:55:52.138Z,4.30
2019-03-28T13:58:23.130Z,5.60
2019-03-28T14:00:54.726Z,4.43
2019-03-28T14:03:26.184Z,4.67
2019-03-28T14:05:57.068Z,4.10
2019-03-28T14:08:31.455Z,3.10
2019-03-28T14:11:03.000Z,3.03
2019-03-28T14:13:33.770Z,3.50
2019-03-28T14:16:05.641Z,4.27
2019-03-28T14:18:36.237Z,4.20
2019-03-28T14:21:06.894Z,3.93
2019-03-28T14:23:38.288Z,4.50
2019-03-28T14:26:10.631Z,3.90
2019-03-28T14:28:41.873Z,4.63
2019-03-28T14:31:12.454Z,4.60
2019-03-28T14:33:43.808Z,3.90
2019-03-28T14:36:15.983Z,3.97
2019-03-28T14:38:47.029Z,5.90
2019-03-28T14:41:17.783Z,4.50
2019-03-28T14:43:48.453Z,4.10
2019-03-28T14:46:19.225Z,4.73
2019-03-28T14:48:51.266Z,4.20
2019-03-28T14:51:21.965Z,4.27
2019-03-28T14:53:52.720Z,5.63
2019-03-28T14:56:23.476Z,6.70
2019-03-28T14:58:54.362Z,5.50
2019-03-28T15:01:26.825Z,4.67
2019-03-28T15:03:58.710Z,4.10
2019-03-28T15:06:30.489Z,4.50
2019-03-28T15:09:02.447Z,4.00
2019-03-28T15:11:34.643Z,4.60
2019-03-28T15:14:05.275Z,4.27
2019-03-28T15:16:36.107Z,3.80
2019-03-28T15:19:06.817Z,4.27
2019-03-28T15:21:38.143Z,4.27
2019-03-28T15:24:09.937Z,3.50
2019-03-28T15:26:47.378Z,4.70
2019-03-28T15:29:18.121Z,4.60
2019-03-28T15:31:48.944Z,4.10
2019-03-28T15:34:19.912Z,5.17
2019-03-28T15:36:51.545Z,3.37
2019-03-28T15:39:54.001Z,3.67
2019-03-28T15:42:27.963Z,3.53
2019-03-28T15:44:59.483Z,2.73
2019-03-28T15:47:30.157Z,3.17
2019-03-28T15:50:00.860Z,2.73
2019-03-28T15:52:31.941Z,3.40
2019-03-28T15:55:03.008Z,2.73
2019-03-28T15:57:33.821Z,3.17
2019-03-28T16:00:04.577Z,3.13
2019-03-28T16:02:36.331Z,3.40
2019-03-28T16:05:07.189Z,3.60
2019-03-28T16:07:37.831Z,3.00
2019-03-28T16:10:08.514Z,3.20
2019-03-28T16:12:39.117Z,2.73
2019-03-28T16:15:10.097Z,2.80
2019-03-28T16:17:40.903Z,3.00
2019-03-28T16:20:11.660Z,3.20
2019-03-28T16:22:42.670Z,2.67
2019-03-28T16:25:13.399Z,3.23
2019-03-28T16:27:44.208Z,3.50
2019-03-28T16:30:15.004Z,2.73
2019-03-28T16:32:45.827Z,3.37
2019-03-28T16:35:16.702Z,3.43
2019-03-28T16:37:50.753Z,3.20
2019-03-28T16:40:19.949Z,19.27
2019-03-28T16:42:50.939Z,5.27
2019-03-28T16:45:21.846Z,3.20
2019-03-28T16:47:52.578Z,3.17
2019-03-28T16:50:23.449Z,3.70
2019-03-28T16:52:54.166Z,4.60
2019-03-28T16:55:26.642Z,3.13
2019-03-28T16:57:57.588Z,3.20
2019-03-28T17:00:39.014Z,3.07
2019-03-28T17:03:09.924Z,3.40
2019-03-28T17:05:41.775Z,2.90
2019-03-28T17:08:12.973Z,4.30
2019-03-28T17:10:48.773Z,4.17
2019-03-28T17:13:19.403Z,5.50
2019-03-28T17:15:51.014Z,3.90
2019-03-28T17:18:22.212Z,3.30
2019-03-28T17:20:53.509Z,3.90
2019-03-28T17:23:25.865Z,6.83
2019-03-28T17:25:57.276Z,6.43
2019-03-28T17:28:28.144Z,4.37
2019-03-28T17:30:59.555Z,3.40
2019-03-28T17:33:30.396Z,4.13
2019-03-28T17:36:01.288Z,3.83
2019-03-28T17:38:32.310Z,4.77
2019-03-28T17:41:06.586Z,3.67
2019-03-28T17:43:36.545Z,3.57
2019-03-28T17:46:07.411Z,4.17
2019-03-28T17:48:38.308Z,3.70
2019-03-28T17:51:09.619Z,4.50
2019-03-28T17:53:40.497Z,3.80
2019-03-28T17:56:11.512Z,3.73
2019-03-28T17:58:59.257Z,4.00
2019-03-28T18:01:30.291Z,4.27
2019-03-28T18:04:02.311Z,3.50
2019-03-28T18:06:33.162Z,4.83
2019-03-28T18:09:04.617Z,4.67
2019-03-28T18:11:35.672Z,4.83
2019-03-28T18:14:07.160Z,4.90
2019-03-28T18:16:37.887Z,5.00
2019-03-28T18:19:08.701Z,5.10
2019-03-28T18:21:41.825Z,5.30
2019-03-28T18:24:12.947Z,5.30
2019-03-28T18:26:44.262Z,5.37
2019-03-28T18:29:15.047Z,4.13
2019-03-28T18:31:50.696Z,4.60
2019-03-28T18:34:19.175Z,6.20
2019-03-28T18:36:50.854Z,5.33
2019-03-28T18:39:21.512Z,5.60
2019-03-28T18:41:52.125Z,5.03
2019-03-28T18:44:23.134Z,5.17
2019-03-28T18:46:53.846Z,6.30
2019-03-28T18:49:24.693Z,6.80
2019-03-28T18:51:55.461Z,6.60
2019-03-28T18:54:26.511Z,16.07
2019-03-28T18:56:57.231Z,9.50
2019-03-28T18:59:28.487Z,6.43
2019-03-28T19:01:59.817Z,4.53
2019-03-28T19:04:30.865Z,5.33
2019-03-28T19:07:02.592Z,6.73
2019-03-28T19:09:33.720Z,5.73
2019-03-28T19:12:14.551Z,8.23
2019-03-28T19:14:46.288Z,6.77
2019-03-28T19:17:16.958Z,14.10
2019-03-28T19:19:47.849Z,9.50
2019-03-28T19:22:18.753Z,8.30
2019-03-28T19:24:49.576Z,7.73
2019-03-28T19:27:21.130Z,9.00
2019-03-28T19:29:52.100Z,12.20
2019-03-28T19:32:24.093Z,9.20
2019-03-28T19:34:54.941Z,9.97
2019-03-28T19:37:25.838Z,15.37
2019-03-28T19:39:57.843Z,8.67
2019-03-28T19:42:28.535Z,5.63
2019-03-28T19:44:59.365Z,10.30
2019-03-28T19:47:30.403Z,9.23
2019-03-28T19:50:02.178Z,12.70
2019-03-28T19:52:33.205Z,10.77
2019-03-28T19:55:04.327Z,7.63
2019-03-28T19:57:35.756Z,9.53
2019-03-28T20:00:07.247Z,7.80
2019-03-28T20:02:38.268Z,6.60
2019-03-28T20:05:09.809Z,8.30
2019-03-28T20:07:40.979Z,6.40
2019-03-28T20:10:16.515Z,7.07
2019-03-28T20:12:44.825Z,7.60
2019-03-28T20:15:20.936Z,8.23
2019-03-28T20:17:51.782Z,9.33
2019-03-28T20:20:22.494Z,6.00
2019-03-28T20:22:53.097Z,10.00
2019-03-28T20:25:24.045Z,9.50
2019-03-28T20:27:55.655Z,9.70
2019-03-28T20:30:27.926Z,8.10
2019-03-28T20:32:58.931Z,10.17
2019-03-28T20:35:31.886Z,9.37
2019-03-28T20:38:03.860Z,9.07
2019-03-28T20:40:39.086Z,9.37
2019-03-28T20:43:09.923Z,10.03
2019-03-28T20:45:40.715Z,8.40
2019-03-28T20:48:11.457Z,8.17
2019-03-28T20:50:42.861Z,8.50
2019-03-28T20:53:13.821Z,8.90
2019-03-28T20:55:45.038Z,8.17
2019-03-28T20:58:15.876Z,9.37
2019-03-28T21:00:47.489Z,9.60
2019-03-28T21:03:18.497Z,8.57
2019-03-28T21:05:49.450Z,9.53
2019-03-28T21:08:20.705Z,9.60
2019-03-28T21:10:51.907Z,8.60
2019-03-28T21:13:23.241Z,8.40
2019-03-28T21:15:53.812Z,6.77
2019-03-28T21:18:24.608Z,7.00
2019-03-28T21:20:55.667Z,7.73
2019-03-28T21:23:26.568Z,7.20
2019-03-28T21:26:00.937Z,8.13
2019-03-28T21:28:31.048Z,8.60
2019-03-28T21:31:01.270Z,13.27
2019-03-28T21:33:31.365Z,10.33
2019-03-28T21:36:07.768Z,10.23
2019-03-28T21:38:40.993Z,10.83
2019-03-28T21:41:16.354Z,14.87
2019-03-28T21:43:46.505Z,10.13
2019-03-28T21:46:16.751Z,10.80
2019-03-28T21:48:47.018Z,10.37
2019-03-28T21:51:17.138Z,12.03
2019-03-28T21:53:47.687Z,9.47
2019-03-28T21:56:17.855Z,12.23
2019-03-28T21:58:48.051Z,9.80
2019-03-28T22:01:18.790Z,10.70
2019-03-28T22:03:51.610Z,16.13
2019-03-28T22:06:20.818Z,16.27
2019-03-28T22:08:51.019Z,14.30
2019-03-28T22:11:21.362Z,12.33
2019-03-28T22:13:51.461Z,11.53
2019-03-28T22:16:21.618Z,11.80
2019-03-28T22:18:51.779Z,11.40
2019-03-28T22:21:21.946Z,11.60
2019-03-28T22:23:52.463Z,9.23
2019-03-28T22:26:22.934Z,10.43
2019-03-28T22:28:53.090Z,12.93
2019-03-28T22:31:23.374Z,13.00
2019-03-28T22:33:53.836Z,11.37
2019-03-28T22:36:23.973Z,11.67
2019-03-28T22:38:54.198Z,12.77
2019-03-28T22:41:24.406Z,10.77
2019-03-28T22:43:54.523Z,13.27
2019-03-28T22:46:26.059Z,11.07
2019-03-28T22:48:56.218Z,11.50
2019-03-28T22:51:27.314Z,14.17
2019-03-28T22:53:57.651Z,12.23
2019-03-28T22:56:27.861Z,13.20
2019-03-28T22:58:58.121Z,14.10
2019-03-28T23:01:28.482Z,9.73
2019-03-28T23:03:58.565Z,13.37
2019-03-28T23:06:29.864Z,11.50
2019-03-28T23:09:00.042Z,11.47
2019-03-28T23:11:30.325Z,9.77
2019-03-28T23:14:00.690Z,7.47
2019-03-28T23:16:30.862Z,11.03
2019-03-28T23:19:01.024Z,9.30
2019-03-28T23:21:31.164Z,9.27
2019-03-28T23:24:02.781Z,9.10
2019-03-28T23:26:32.928Z,11.80
2019-03-28T23:29:03.288Z,10.10
2019-03-28T23:31:33.607Z,9.27
2019-03-28T23:34:03.782Z,12.27
2019-03-28T23:36:33.938Z,11.90
2019-03-28T23:39:05.006Z,9.50
2019-03-28T23:41:35.339Z,10.80
2019-03-28T23:44:05.593Z,9.13
2019-03-28T23:46:35.714Z,12.47
2019-03-28T23:49:05.949Z,9.77
2019-03-28T23:54:03.046Z,12.03
2019-03-28T23:56:33.134Z,11.40
2019-03-28T23:59:03.377Z,12.80
